createdAt,value
2019-04-28T00:00:45.709Z,0.00
2019-04-28T00:01:45.796Z,0.00
2019-04-28T00:02:45.880Z,0.00
2019-04-28T00:03:45.970Z,0.00
2019-04-28T00:04:46.060Z,0.00
2019-04-28T00:05:46.151Z,0.00
2019-04-28T00:06:46.242Z,0.00
2019-04-28T00:07:46.331Z,0.00
2019-04-28T00:08:46.423Z,0.00
2019-04-28T00:09:46.513Z,0.00
2019-04-28T00:10:55.263Z,0.00
2019-04-28T00:11:46.737Z,0.00
2019-04-28T00:12:55.465Z,0.00
2019-04-28T00:13:55.575Z,0.00
2019-04-28T00:14:47.048Z,0.00
2019-04-28T00:15:47.136Z,0.00
2019-04-28T00:16:47.235Z,0.00
2019-04-28T00:17:47.317Z,0.00
2019-04-28T00:18:57.059Z,0.00
2019-04-28T00:19:47.526Z,0.00
2019-04-28T00:20:57.271Z,0.00
2019-04-28T00:21:47.740Z,0.00
2019-04-28T00:22:47.831Z,0.00
2019-04-28T00:23:47.923Z,0.00
2019-04-28T00:24:48.013Z,0.00
2019-04-28T00:25:48.100Z,0.00
2019-04-28T00:26:48.190Z,0.00
2019-04-28T00:27:48.288Z,0.00
2019-04-28T00:28:48.381Z,0.00
2019-04-28T00:29:48.472Z,0.00
2019-04-28T00:30:48.554Z,0.00
2019-04-28T00:31:48.652Z,0.00
2019-04-28T00:32:48.743Z,0.00
2019-04-28T00:33:48.850Z,0.00
2019-04-28T00:34:50.992Z,0.00
2019-04-28T00:35:49.017Z,0.00
2019-04-28T00:36:51.104Z,0.00
2019-04-28T00:37:49.199Z,0.00
2019-04-28T00:38:49.291Z,0.00
2019-04-28T00:39:50.975Z,0.00
2019-04-28T00:40:51.141Z,0.00
2019-04-28T00:41:51.165Z,0.00
2019-04-28T00:42:51.190Z,0.00
2019-04-28T00:43:51.415Z,0.00
2019-04-28T00:44:51.505Z,0.00
2019-04-28T00:45:51.301Z,0.00
2019-04-28T00:46:51.145Z,0.00
2019-04-28T00:47:51.053Z,0.00
2019-04-28T00:48:50.838Z,0.00
2019-04-28T00:49:51.955Z,0.00
2019-04-28T00:50:51.863Z,0.00
2019-04-28T00:51:50.917Z,0.00
2019-04-28T00:52:51.817Z,0.00
2019-04-28T00:53:50.981Z,0.00
2019-04-28T00:54:52.484Z,0.00
2019-04-28T00:55:51.589Z,0.00
2019-04-28T00:56:51.701Z,0.00
2019-04-28T00:57:51.031Z,0.00
2019-04-28T00:58:51.365Z,0.00
2019-04-28T00:59:57.673Z,0.00
2019-04-28T01:00:51.420Z,0.00
2019-04-28T01:01:51.434Z,0.00
2019-04-28T01:02:51.475Z,0.00
2019-04-28T01:03:51.989Z,0.00
2019-04-28T01:04:51.662Z,0.00
2019-04-28T01:05:51.743Z,0.00
2019-04-28T01:06:52.117Z,0.00
2019-04-28T01:07:51.924Z,0.00
2019-04-28T01:08:52.021Z,0.00
2019-04-28T01:09:52.108Z,0.00
2019-04-28T01:10:52.197Z,0.00
2019-04-28T01:11:53.467Z,0.00
2019-04-28T01:12:52.380Z,0.00
2019-04-28T01:13:52.472Z,0.00
2019-04-28T01:14:55.045Z,0.00
2019-04-28T01:15:52.651Z,0.00
2019-04-28T01:16:52.744Z,0.00
2019-04-28T01:17:52.838Z,0.00
2019-04-28T01:18:52.924Z,0.00
2019-04-28T01:19:53.027Z,0.00
2019-04-28T01:20:53.114Z,0.00
2019-04-28T01:21:53.198Z,0.00
2019-04-28T01:22:53.288Z,0.00
2019-04-28T01:23:53.381Z,0.00
2019-04-28T01:24:53.470Z,0.00
2019-04-28T01:25:53.582Z,0.00
2019-04-28T01:26:53.668Z,0.00
2019-04-28T01:27:53.763Z,0.00
2019-04-28T01:28:53.849Z,0.00
2019-04-28T01:30:05.354Z,0.00
2019-04-28T01:30:54.033Z,0.00
2019-04-28T01:31:54.126Z,0.00
2019-04-28T01:32:54.214Z,0.00
2019-04-28T01:33:54.307Z,0.00
2019-04-28T01:34:54.397Z,0.00
2019-04-28T01:35:54.486Z,0.00
2019-04-28T01:37:01.732Z,0.00
2019-04-28T01:37:54.701Z,0.00
2019-04-28T01:38:54.785Z,0.00
2019-04-28T01:39:54.877Z,0.00
2019-04-28T01:40:54.964Z,0.00
2019-04-28T01:41:55.054Z,0.00
2019-04-28T01:42:55.143Z,0.00
2019-04-28T01:43:55.233Z,0.00
2019-04-28T01:44:55.321Z,0.00
2019-04-28T01:45:55.414Z,0.00
2019-04-28T01:46:55.501Z,0.00
2019-04-28T01:47:55.599Z,0.00
2019-04-28T01:48:55.683Z,0.00
2019-04-28T01:49:55.775Z,0.00
2019-04-28T01:50:55.870Z,0.00
2019-04-28T01:51:55.954Z,0.00
2019-04-28T01:52:56.048Z,0.00
2019-04-28T01:53:56.136Z,0.00
2019-04-28T01:54:56.225Z,0.00
2019-04-28T01:55:56.320Z,0.00
2019-04-28T01:56:58.592Z,0.00
2019-04-28T01:57:56.497Z,0.00
2019-04-28T01:58:56.590Z,0.00
2019-04-28T01:59:56.679Z,0.00
2019-04-28T02:00:56.771Z,0.00
2019-04-28T02:01:56.865Z,0.00
2019-04-28T02:02:56.945Z,0.00
2019-04-28T02:03:57.039Z,0.00
2019-04-28T02:04:57.128Z,0.00
2019-04-28T02:05:57.218Z,0.00
2019-04-28T02:06:57.311Z,0.00
2019-04-28T02:07:57.399Z,0.00
2019-04-28T02:08:57.489Z,0.00
2019-04-28T02:09:57.579Z,0.00
2019-04-28T02:10:57.671Z,0.00
2019-04-28T02:11:57.760Z,0.00
2019-04-28T02:12:59.788Z,0.00
2019-04-28T02:13:59.587Z,0.00
2019-04-28T02:14:58.045Z,0.00
2019-04-28T02:15:59.858Z,0.00
2019-04-28T02:16:58.223Z,0.00
2019-04-28T02:18:00.097Z,0.00
2019-04-28T02:18:59.730Z,0.00
2019-04-28T02:20:00.413Z,0.00
2019-04-28T02:20:59.581Z,0.00
2019-04-28T02:21:59.496Z,0.00
2019-04-28T02:22:59.904Z,0.00
2019-04-28T02:23:59.892Z,0.00
2019-04-28T02:25:00.308Z,0.00
2019-04-28T02:25:59.730Z,0.00
2019-04-28T02:27:00.833Z,0.00
2019-04-28T02:27:59.640Z,0.00
2019-04-28T02:29:00.282Z,0.00
2019-04-28T02:30:00.112Z,0.00
2019-04-28T02:31:02.112Z,0.00
2019-04-28T02:32:02.145Z,0.00
2019-04-28T02:33:01.641Z,0.00
2019-04-28T02:34:00.794Z,0.00
2019-04-28T02:35:01.242Z,0.00
2019-04-28T02:36:01.458Z,0.00
2019-04-28T02:37:01.487Z,0.00
2019-04-28T02:38:00.237Z,0.00
2019-04-28T02:39:00.860Z,0.00
2019-04-28T02:40:03.351Z,0.00
2019-04-28T02:41:00.418Z,0.00
2019-04-28T02:42:01.382Z,0.00
2019-04-28T02:43:01.291Z,0.00
2019-04-28T02:44:01.071Z,0.00
2019-04-28T02:45:00.911Z,0.00
2019-04-28T02:46:00.888Z,0.00
2019-04-28T02:47:01.255Z,0.00
2019-04-28T02:48:01.198Z,0.00
2019-04-28T02:49:01.134Z,0.00
2019-04-28T02:50:01.267Z,0.00
2019-04-28T02:51:01.392Z,0.00
2019-04-28T02:52:03.017Z,0.00
2019-04-28T02:53:01.913Z,0.00
2019-04-28T02:54:01.583Z,0.00
2019-04-28T02:55:03.106Z,0.00
2019-04-28T02:56:01.771Z,0.00
2019-04-28T02:57:01.876Z,0.00
2019-04-28T02:58:01.956Z,0.00
2019-04-28T02:59:02.048Z,0.00
2019-04-28T03:00:02.139Z,0.00
2019-04-28T03:01:11.195Z,0.00
2019-04-28T03:02:02.325Z,0.00
2019-04-28T03:03:02.409Z,0.00
2019-04-28T03:04:02.502Z,0.00
2019-04-28T03:05:02.596Z,0.00
2019-04-28T03:06:02.692Z,0.00
2019-04-28T03:07:02.765Z,0.00
2019-04-28T03:08:02.858Z,0.00
2019-04-28T03:09:02.945Z,0.00
2019-04-28T03:10:03.811Z,0.00
2019-04-28T03:11:03.137Z,0.00
2019-04-28T03:12:03.219Z,0.00
2019-04-28T03:13:03.309Z,0.00
2019-04-28T03:14:03.403Z,0.00
2019-04-28T03:15:03.491Z,0.00
2019-04-28T03:16:03.589Z,0.00
2019-04-28T03:17:03.672Z,0.00
2019-04-28T03:18:03.774Z,0.00
2019-04-28T03:19:03.855Z,0.00
2019-04-28T03:20:03.945Z,0.00
2019-04-28T03:21:04.658Z,0.00
2019-04-28T03:22:04.124Z,0.00
2019-04-28T03:23:04.218Z,0.00
2019-04-28T03:24:04.304Z,0.00
2019-04-28T03:25:04.429Z,0.00
2019-04-28T03:26:04.486Z,0.00
2019-04-28T03:27:04.575Z,0.00
2019-04-28T03:28:04.666Z,0.00
2019-04-28T03:29:04.759Z,0.00
2019-04-28T03:30:04.849Z,0.00
2019-04-28T03:31:35.012Z,0.00
2019-04-28T03:32:28.865Z,4.00
2019-04-28T03:33:11.825Z,4.00
2019-04-28T03:34:05.227Z,4.00
2019-04-28T03:35:05.295Z,4.00
2019-04-28T03:36:08.453Z,4.00
2019-04-28T03:37:05.476Z,4.00
2019-04-28T03:38:05.576Z,4.00
2019-04-28T03:39:05.658Z,4.00
2019-04-28T03:40:05.752Z,4.00
2019-04-28T03:41:05.872Z,8.00
2019-04-28T03:42:05.921Z,4.00
2019-04-28T03:43:06.034Z,8.00
2019-04-28T03:44:06.108Z,8.00
2019-04-28T03:45:06.201Z,8.00
2019-04-28T03:46:06.285Z,8.00
2019-04-28T03:47:06.378Z,8.00
2019-04-28T03:48:06.468Z,12.00
2019-04-28T03:49:06.564Z,12.00
2019-04-28T03:50:06.647Z,12.00
2019-04-28T03:51:06.734Z,16.00
2019-04-28T03:52:06.841Z,20.00
2019-04-28T03:53:06.914Z,20.00
2019-04-28T03:54:07.003Z,28.00
2019-04-28T03:55:07.095Z,28.00
2019-04-28T03:56:07.172Z,32.00
2019-04-28T03:57:07.287Z,36.00
2019-04-28T03:58:07.359Z,40.00
2019-04-28T03:59:10.148Z,44.00
2019-04-28T04:00:07.536Z,48.00
2019-04-28T04:01:10.432Z,52.00
2019-04-28T04:02:07.730Z,56.00
2019-04-28T04:03:10.661Z,64.00
2019-04-28T04:04:07.893Z,68.00
2019-04-28T04:05:10.883Z,72.00
2019-04-28T04:06:10.369Z,76.00
2019-04-28T04:07:08.164Z,84.00
2019-04-28T04:08:10.726Z,92.00
2019-04-28T04:09:08.348Z,96.00
2019-04-28T04:10:11.186Z,104.00
2019-04-28T04:11:10.886Z,104.00
2019-04-28T04:12:11.130Z,112.00
2019-04-28T04:13:10.981Z,120.00
2019-04-28T04:14:11.296Z,132.00
2019-04-28T04:15:11.176Z,132.00
2019-04-28T04:16:10.392Z,144.00
2019-04-28T04:17:11.245Z,152.00
2019-04-28T04:18:10.987Z,160.00
2019-04-28T04:19:10.636Z,168.00
2019-04-28T04:20:11.096Z,176.00
2019-04-28T04:21:11.134Z,184.00
2019-04-28T04:22:10.175Z,200.00
2019-04-28T04:23:11.329Z,212.00
2019-04-28T04:24:10.846Z,228.00
2019-04-28T04:25:12.456Z,240.00
2019-04-28T04:26:11.667Z,252.00
2019-04-28T04:27:10.672Z,268.00
2019-04-28T04:28:10.721Z,292.00
2019-04-28T04:29:10.310Z,312.00
2019-04-28T04:30:10.935Z,324.00
2019-04-28T04:31:10.609Z,340.00
2019-04-28T04:32:20.483Z,352.00
2019-04-28T04:33:11.250Z,368.00
2019-04-28T04:34:10.830Z,384.00
2019-04-28T04:35:10.719Z,396.00
2019-04-28T04:36:11.915Z,412.00
2019-04-28T04:37:12.659Z,420.00
2019-04-28T04:38:11.001Z,440.00
2019-04-28T04:39:11.082Z,464.00
2019-04-28T04:40:13.260Z,496.00
2019-04-28T04:41:11.468Z,560.00
2019-04-28T04:42:11.351Z,604.00
2019-04-28T04:43:11.517Z,600.00
2019-04-28T04:44:11.533Z,648.00
2019-04-28T04:45:11.626Z,668.00
2019-04-28T04:46:14.161Z,676.00
2019-04-28T04:47:11.830Z,712.00
2019-04-28T04:48:11.956Z,752.00
2019-04-28T04:49:12.013Z,788.00
2019-04-28T04:50:13.202Z,768.00
2019-04-28T04:51:12.186Z,744.00
2019-04-28T04:52:12.278Z,732.00
2019-04-28T04:53:12.369Z,688.00
2019-04-28T04:54:12.457Z,652.00
2019-04-28T04:55:12.549Z,632.00
2019-04-28T04:56:12.639Z,640.00
2019-04-28T04:57:12.737Z,632.00
2019-04-28T04:58:12.833Z,644.00
2019-04-28T04:59:12.917Z,664.00
2019-04-28T05:00:13.006Z,700.00
2019-04-28T05:01:13.095Z,764.00
2019-04-28T05:02:26.718Z,852.00
2019-04-28T05:03:13.282Z,916.00
2019-04-28T05:04:13.369Z,928.00
2019-04-28T05:05:13.471Z,988.00
2019-04-28T05:06:13.561Z,1016.00
2019-04-28T05:07:13.652Z,1056.00
2019-04-28T05:08:15.537Z,1132.00
2019-04-28T05:09:13.832Z,1236.00
2019-04-28T05:10:13.924Z,1332.00
2019-04-28T05:11:14.017Z,1324.00
2019-04-28T05:12:14.104Z,1388.00
2019-04-28T05:13:14.191Z,1468.00
2019-04-28T05:14:14.280Z,1620.00
2019-04-28T05:15:14.373Z,1760.00
2019-04-28T05:16:14.465Z,1864.00
2019-04-28T05:17:14.556Z,1924.00
2019-04-28T05:18:14.645Z,2008.00
2019-04-28T05:19:14.737Z,2080.00
2019-04-28T05:20:14.829Z,2196.00
2019-04-28T05:21:14.916Z,2296.00
2019-04-28T05:22:15.008Z,2372.00
2019-04-28T05:23:15.105Z,2436.00
2019-04-28T05:24:15.952Z,2388.00
2019-04-28T05:25:15.302Z,2320.00
2019-04-28T05:26:15.386Z,2264.00
2019-04-28T05:27:17.342Z,2256.00
2019-04-28T05:28:15.579Z,2192.00
2019-04-28T05:29:19.980Z,2108.00
2019-04-28T05:30:15.750Z,1948.00
2019-04-28T05:31:20.627Z,1900.00
2019-04-28T05:32:15.930Z,1896.00
2019-04-28T05:33:16.023Z,1912.00
2019-04-28T05:34:16.108Z,1928.00
2019-04-28T05:35:17.561Z,2004.00
2019-04-28T05:36:16.290Z,2132.00
2019-04-28T05:37:16.372Z,2144.00
2019-04-28T05:38:16.482Z,2112.00
2019-04-28T05:39:16.570Z,2220.00
2019-04-28T05:40:16.660Z,2364.00
2019-04-28T05:41:16.765Z,2484.00
2019-04-28T05:42:16.841Z,2540.00
2019-04-28T05:43:16.939Z,2700.00
2019-04-28T05:44:17.026Z,2668.00
2019-04-28T05:45:17.115Z,2716.00
2019-04-28T05:46:17.208Z,2752.00
2019-04-28T05:47:17.295Z,2692.00
2019-04-28T05:48:17.386Z,2660.00
2019-04-28T05:49:19.395Z,2760.00
2019-04-28T05:50:19.566Z,2648.00
2019-04-28T05:51:19.761Z,2628.00
2019-04-28T05:52:19.945Z,2564.00
2019-04-28T05:53:19.291Z,2484.00
2019-04-28T05:54:19.742Z,2572.00
2019-04-28T05:55:18.021Z,2616.00
2019-04-28T05:56:18.111Z,2676.00
2019-04-28T05:57:18.207Z,2820.00
2019-04-28T05:58:19.831Z,3180.00
2019-04-28T05:59:19.473Z,3608.00
2019-04-28T06:00:19.786Z,3624.00
2019-04-28T06:01:20.317Z,3708.00
2019-04-28T06:02:21.265Z,3976.00
2019-04-28T06:03:19.959Z,3968.00
2019-04-28T06:04:19.923Z,3840.00
2019-04-28T06:05:19.998Z,3604.00
2019-04-28T06:06:20.440Z,3500.00
2019-04-28T06:07:20.225Z,3516.00
2019-04-28T06:08:20.217Z,3492.00
2019-04-28T06:09:20.358Z,3472.00
2019-04-28T06:10:20.241Z,3380.00
2019-04-28T06:11:20.244Z,3400.00
2019-04-28T06:12:20.166Z,3480.00
2019-04-28T06:13:20.264Z,3736.00
2019-04-28T06:14:19.936Z,3788.00
2019-04-28T06:15:20.440Z,3840.00
2019-04-28T06:16:22.189Z,3636.00
2019-04-28T06:17:20.644Z,3496.00
2019-04-28T06:18:20.647Z,3340.00
2019-04-28T06:19:20.319Z,3060.00
2019-04-28T06:20:20.370Z,3016.00
2019-04-28T06:21:20.464Z,2992.00
2019-04-28T06:22:20.554Z,3180.00
2019-04-28T06:23:20.647Z,3284.00
2019-04-28T06:24:20.737Z,3368.00
2019-04-28T06:25:20.838Z,3616.00
2019-04-28T06:26:20.919Z,3820.00
2019-04-28T06:27:21.008Z,3888.00
2019-04-28T06:28:21.103Z,4140.00
2019-04-28T06:29:21.233Z,4084.00
2019-04-28T06:30:21.281Z,3664.00
2019-04-28T06:31:21.376Z,3472.00
2019-04-28T06:32:21.466Z,3288.00
2019-04-28T06:33:21.559Z,3388.00
2019-04-28T06:34:21.653Z,3644.00
2019-04-28T06:35:21.743Z,3768.00
2019-04-28T06:36:21.829Z,3796.00
2019-04-28T06:37:21.920Z,3948.00
2019-04-28T06:38:22.014Z,4328.00
2019-04-28T06:39:22.103Z,4300.00
2019-04-28T06:40:22.194Z,4492.00
2019-04-28T06:41:22.279Z,4364.00
2019-04-28T06:42:22.368Z,4164.00
2019-04-28T06:43:22.461Z,4040.00
2019-04-28T06:44:22.552Z,4204.00
2019-04-28T06:45:22.644Z,4472.00
2019-04-28T06:46:22.733Z,4776.00
2019-04-28T06:47:22.828Z,4932.00
2019-04-28T06:48:22.920Z,4884.00
2019-04-28T06:49:23.013Z,4548.00
2019-04-28T06:50:23.106Z,3980.00
2019-04-28T06:51:23.198Z,3492.00
2019-04-28T06:52:23.294Z,3088.00
2019-04-28T06:53:23.385Z,2952.00
2019-04-28T06:54:23.474Z,2836.00
2019-04-28T06:55:23.582Z,2772.00
2019-04-28T06:56:23.676Z,2868.00
2019-04-28T06:57:23.767Z,3000.00
2019-04-28T06:58:23.861Z,3136.00
2019-04-28T06:59:23.955Z,3276.00
2019-04-28T07:00:24.047Z,3416.00
2019-04-28T07:01:24.135Z,3452.00
2019-04-28T07:02:24.232Z,3384.00
2019-04-28T07:03:24.325Z,3408.00
2019-04-28T07:04:24.416Z,3324.00
2019-04-28T07:05:24.508Z,3220.00
2019-04-28T07:06:24.603Z,3212.00
2019-04-28T07:07:24.694Z,3244.00
2019-04-28T07:08:24.786Z,3332.00
2019-04-28T07:09:24.925Z,3452.00
2019-04-28T07:10:24.968Z,3408.00
2019-04-28T07:11:25.063Z,3384.00
2019-04-28T07:12:25.153Z,3268.00
2019-04-28T07:13:25.251Z,2968.00
2019-04-28T07:14:25.327Z,2676.00
2019-04-28T07:15:25.422Z,2504.00
2019-04-28T07:16:25.515Z,2488.00
2019-04-28T07:17:25.611Z,2616.00
2019-04-28T07:18:25.701Z,2836.00
2019-04-28T07:19:25.789Z,2924.00
2019-04-28T07:20:25.888Z,2952.00
2019-04-28T07:21:25.973Z,2892.00
2019-04-28T07:22:26.065Z,2788.00
2019-04-28T07:23:26.158Z,2692.00
2019-04-28T07:24:26.249Z,2704.00
2019-04-28T07:25:26.341Z,2692.00
2019-04-28T07:26:26.432Z,2644.00
2019-04-28T07:27:26.526Z,2612.00
2019-04-28T07:28:26.637Z,2672.00
2019-04-28T07:29:26.719Z,2772.00
2019-04-28T07:30:26.805Z,2892.00
2019-04-28T07:31:26.893Z,2804.00
2019-04-28T07:32:26.982Z,2656.00
2019-04-28T07:33:35.907Z,2540.00
2019-04-28T07:34:27.169Z,2452.00
2019-04-28T07:35:27.259Z,2372.00
2019-04-28T07:36:27.350Z,2424.00
2019-04-28T07:37:27.444Z,2496.00
2019-04-28T07:38:27.540Z,2508.00
2019-04-28T07:39:27.631Z,2444.00
2019-04-28T07:40:27.717Z,2468.00
2019-04-28T07:41:27.811Z,2584.00
2019-04-28T07:42:27.907Z,2728.00
2019-04-28T07:43:28.007Z,2908.00
2019-04-28T07:44:28.087Z,3120.00
2019-04-28T07:45:28.178Z,3292.00
2019-04-28T07:46:28.271Z,3476.00
2019-04-28T07:47:28.361Z,3584.00
2019-04-28T07:48:28.454Z,3420.00
2019-04-28T07:49:28.545Z,3176.00
2019-04-28T07:50:28.640Z,3008.00
2019-04-28T07:51:28.794Z,2892.00
2019-04-28T07:52:28.830Z,2812.00
2019-04-28T07:53:28.923Z,2784.00
2019-04-28T07:54:29.018Z,2800.00
2019-04-28T07:55:29.108Z,2804.00
2019-04-28T07:56:29.202Z,2820.00
2019-04-28T07:57:29.301Z,2916.00
2019-04-28T07:58:29.387Z,3116.00
2019-04-28T07:59:29.481Z,3420.00
2019-04-28T08:00:36.735Z,3804.00
2019-04-28T08:01:29.705Z,4256.00
2019-04-28T08:02:29.797Z,4632.00
2019-04-28T08:03:29.889Z,5000.00
2019-04-28T08:04:29.983Z,5448.00
2019-04-28T08:05:30.075Z,5912.00
2019-04-28T08:06:30.160Z,6152.00
2019-04-28T08:07:30.262Z,6236.00
2019-04-28T08:08:30.343Z,6232.00
2019-04-28T08:09:30.435Z,6192.00
2019-04-28T08:10:30.530Z,6028.00
2019-04-28T08:11:30.622Z,5948.00
2019-04-28T08:12:30.712Z,6060.00
2019-04-28T08:13:30.803Z,7344.00
2019-04-28T08:14:30.890Z,6932.00
2019-04-28T08:15:30.984Z,6100.00
2019-04-28T08:16:31.081Z,6944.00
2019-04-28T08:17:31.174Z,6664.00
2019-04-28T08:18:31.734Z,8248.00
2019-04-28T08:19:31.377Z,8476.00
2019-04-28T08:20:31.471Z,8620.00
2019-04-28T08:21:31.566Z,8732.00
2019-04-28T08:22:31.656Z,8652.00
2019-04-28T08:23:31.751Z,6972.00
2019-04-28T08:24:31.843Z,8092.00
2019-04-28T08:25:31.937Z,6584.00
2019-04-28T08:26:32.026Z,6444.00
2019-04-28T08:27:32.121Z,7236.00
2019-04-28T08:28:32.214Z,7864.00
2019-04-28T08:29:32.308Z,5948.00
2019-04-28T08:30:32.400Z,7248.00
2019-04-28T08:31:32.492Z,5460.00
2019-04-28T08:32:32.604Z,5212.00
2019-04-28T08:33:33.359Z,5040.00
2019-04-28T08:34:32.790Z,4940.00
2019-04-28T08:35:32.882Z,4900.00
2019-04-28T08:36:32.975Z,4880.00
2019-04-28T08:37:33.069Z,4968.00
2019-04-28T08:38:33.160Z,5028.00
2019-04-28T08:39:33.256Z,5256.00
2019-04-28T08:40:33.350Z,5564.00
2019-04-28T08:41:33.443Z,5764.00
2019-04-28T08:42:33.540Z,5884.00
2019-04-28T08:43:33.631Z,5876.00
2019-04-28T08:44:33.728Z,5688.00
2019-04-28T08:45:33.829Z,5760.00
2019-04-28T08:46:33.927Z,5364.00
2019-04-28T08:47:34.013Z,5548.00
2019-04-28T08:48:34.107Z,5760.00
2019-04-28T08:49:34.203Z,5744.00
2019-04-28T08:50:34.295Z,5660.00
2019-04-28T08:51:34.392Z,5580.00
2019-04-28T08:52:34.474Z,5372.00
2019-04-28T08:53:34.565Z,5004.00
2019-04-28T08:54:34.660Z,4708.00
2019-04-28T08:55:34.755Z,4372.00
2019-04-28T08:56:34.849Z,4104.00
2019-04-28T08:57:34.942Z,3964.00
2019-04-28T08:58:35.068Z,3992.00
2019-04-28T08:59:35.165Z,3948.00
2019-04-28T09:00:35.258Z,4264.00
2019-04-28T09:01:35.355Z,4348.00
2019-04-28T09:02:35.441Z,4324.00
2019-04-28T09:03:35.541Z,4328.00
2019-04-28T09:04:35.632Z,4384.00
2019-04-28T09:05:35.727Z,4632.00
2019-04-28T09:06:35.811Z,5076.00
2019-04-28T09:07:35.912Z,5988.00
2019-04-28T09:08:35.991Z,5384.00
2019-04-28T09:09:36.090Z,5300.00
2019-04-28T09:10:36.185Z,5780.00
2019-04-28T09:11:36.279Z,5976.00
2019-04-28T09:12:36.369Z,7332.00
2019-04-28T09:13:36.469Z,6612.00
2019-04-28T09:14:36.553Z,6164.00
2019-04-28T09:15:36.649Z,5892.00
2019-04-28T09:16:36.752Z,5640.00
2019-04-28T09:17:36.858Z,5496.00
2019-04-28T09:18:36.969Z,5248.00
2019-04-28T09:19:37.070Z,5028.00
2019-04-28T09:20:37.164Z,4900.00
2019-04-28T09:21:37.264Z,5056.00
2019-04-28T09:22:37.411Z,4792.00
2019-04-28T09:23:37.446Z,5196.00
2019-04-28T09:24:37.569Z,5648.00
2019-04-28T09:25:37.633Z,5256.00
2019-04-28T09:26:37.726Z,4960.00
2019-04-28T09:27:37.819Z,5028.00
2019-04-28T09:28:37.901Z,4904.00
2019-04-28T09:29:38.005Z,4776.00
2019-04-28T09:30:38.119Z,4524.00
2019-04-28T09:31:38.202Z,4320.00
2019-04-28T09:32:38.290Z,4064.00
2019-04-28T09:33:38.397Z,3872.00
2019-04-28T09:34:38.489Z,3664.00
2019-04-28T09:35:38.588Z,3492.00
2019-04-28T09:36:38.685Z,3408.00
2019-04-28T09:37:38.770Z,3364.00
2019-04-28T09:38:38.853Z,3292.00
2019-04-28T09:39:38.953Z,3204.00
2019-04-28T09:40:39.057Z,3224.00
2019-04-28T09:41:39.165Z,3312.00
2019-04-28T09:42:39.261Z,3772.00
2019-04-28T09:43:39.468Z,5184.00
2019-04-28T09:44:39.607Z,3888.00
2019-04-28T09:45:39.540Z,4060.00
2019-04-28T09:46:39.621Z,4396.00
2019-04-28T09:47:39.725Z,4688.00
2019-04-28T09:48:39.820Z,4848.00
2019-04-28T09:49:39.915Z,5096.00
2019-04-28T09:50:40.004Z,5468.00
2019-04-28T09:51:40.090Z,5876.00
2019-04-28T09:52:40.175Z,6248.00
2019-04-28T09:53:40.270Z,6484.00
2019-04-28T09:54:40.365Z,6552.00
2019-04-28T09:55:40.460Z,6532.00
2019-04-28T09:56:40.553Z,6404.00
2019-04-28T09:57:40.643Z,6148.00
2019-04-28T09:58:40.737Z,5812.00
2019-04-28T09:59:40.828Z,5452.00
2019-04-28T10:00:40.925Z,5104.00
2019-04-28T10:01:41.034Z,4788.00
2019-04-28T10:02:41.150Z,4468.00
2019-04-28T10:03:41.310Z,4284.00
2019-04-28T10:04:42.218Z,4252.00
2019-04-28T10:05:41.433Z,4416.00
2019-04-28T10:06:41.525Z,4664.00
2019-04-28T10:07:41.617Z,4888.00
2019-04-28T10:08:41.707Z,5148.00
2019-04-28T10:09:41.815Z,5416.00
2019-04-28T10:10:41.923Z,5620.00
2019-04-28T10:11:42.026Z,5768.00
2019-04-28T10:12:42.130Z,5768.00
2019-04-28T10:13:42.238Z,5688.00
2019-04-28T10:14:42.394Z,5600.00
2019-04-28T10:15:42.437Z,5388.00
2019-04-28T10:16:42.533Z,5784.00
2019-04-28T10:17:42.622Z,5972.00
2019-04-28T10:18:42.723Z,6024.00
2019-04-28T10:19:42.798Z,5992.00
2019-04-28T10:20:42.901Z,5264.00
2019-04-28T10:21:43.007Z,4812.00
2019-04-28T10:22:43.119Z,4356.00
2019-04-28T10:23:43.205Z,4004.00
2019-04-28T10:24:43.300Z,3804.00
2019-04-28T10:25:43.387Z,3752.00
2019-04-28T10:26:43.489Z,3804.00
2019-04-28T10:27:43.574Z,3988.00
2019-04-28T10:28:43.682Z,4228.00
2019-04-28T10:29:43.776Z,4432.00
2019-04-28T10:30:43.871Z,4612.00
2019-04-28T10:31:43.961Z,4848.00
2019-04-28T10:32:44.048Z,4964.00
2019-04-28T10:33:44.155Z,5140.00
2019-04-28T10:34:54.299Z,5260.00
2019-04-28T10:35:44.330Z,5332.00
2019-04-28T10:36:44.427Z,5432.00
2019-04-28T10:37:45.660Z,5468.00
2019-04-28T10:38:44.611Z,5476.00
2019-04-28T10:39:44.709Z,5480.00
2019-04-28T10:40:44.793Z,5412.00
2019-04-28T10:41:44.889Z,5184.00
2019-04-28T10:42:44.988Z,4964.00
2019-04-28T10:43:45.086Z,4788.00
2019-04-28T10:44:45.178Z,4684.00
2019-04-28T10:45:45.271Z,4680.00
2019-04-28T10:46:45.369Z,4788.00
2019-04-28T10:47:45.450Z,4848.00
2019-04-28T10:48:45.540Z,4812.00
2019-04-28T10:49:45.641Z,4808.00
2019-04-28T10:50:45.736Z,4896.00
2019-04-28T10:51:58.483Z,5040.00
2019-04-28T10:52:45.914Z,5080.00
2019-04-28T10:53:46.013Z,5176.00
2019-04-28T10:54:46.101Z,5188.00
2019-04-28T10:55:46.198Z,5144.00
2019-04-28T10:56:46.300Z,5096.00
2019-04-28T10:57:46.390Z,5104.00
2019-04-28T10:58:46.487Z,5152.00
2019-04-28T10:59:46.576Z,5276.00
2019-04-28T11:00:46.680Z,5388.00
2019-04-28T11:01:46.770Z,5484.00
2019-04-28T11:02:46.861Z,5620.00
2019-04-28T11:03:46.957Z,5756.00
2019-04-28T11:04:47.053Z,5816.00
2019-04-28T11:05:47.150Z,5728.00
2019-04-28T11:06:47.236Z,5484.00
2019-04-28T11:07:47.344Z,5260.00
2019-04-28T11:08:47.484Z,5060.00
2019-04-28T11:09:47.517Z,4860.00
2019-04-28T11:10:47.617Z,4656.00
2019-04-28T11:11:47.713Z,4432.00
2019-04-28T11:12:47.810Z,4236.00
2019-04-28T11:13:47.898Z,4048.00
2019-04-28T11:14:47.998Z,3828.00
2019-04-28T11:15:48.085Z,3660.00
2019-04-28T11:16:48.182Z,3436.00
2019-04-28T11:17:48.284Z,3324.00
2019-04-28T11:18:48.381Z,3324.00
2019-04-28T11:19:48.472Z,3352.00
2019-04-28T11:20:48.569Z,3356.00
2019-04-28T11:21:48.680Z,3328.00
2019-04-28T11:22:48.772Z,3232.00
2019-04-28T11:23:48.854Z,3168.00
2019-04-28T11:24:48.951Z,3112.00
2019-04-28T11:25:49.051Z,3064.00
2019-04-28T11:26:49.163Z,3012.00
2019-04-28T11:27:49.258Z,2964.00
2019-04-28T11:28:49.372Z,2948.00
2019-04-28T11:29:49.456Z,2936.00
2019-04-28T11:30:49.549Z,2936.00
2019-04-28T11:31:49.634Z,2916.00
2019-04-28T11:32:49.718Z,2912.00
2019-04-28T11:33:49.815Z,2924.00
2019-04-28T11:34:49.916Z,2968.00
2019-04-28T11:35:50.006Z,3012.00
2019-04-28T11:36:50.136Z,3036.00
2019-04-28T11:37:50.192Z,3040.00
2019-04-28T11:38:50.292Z,3056.00
2019-04-28T11:39:50.371Z,3000.00
2019-04-28T11:40:50.478Z,2836.00
2019-04-28T11:41:50.572Z,2660.00
2019-04-28T11:42:50.656Z,2512.00
2019-04-28T11:43:50.746Z,2348.00
2019-04-28T11:44:50.837Z,2160.00
2019-04-28T11:45:50.932Z,1996.00
2019-04-28T11:46:51.028Z,1868.00
2019-04-28T11:47:51.120Z,1776.00
2019-04-28T11:48:51.213Z,1740.00
2019-04-28T11:49:51.339Z,1740.00
2019-04-28T11:50:51.394Z,1772.00
2019-04-28T11:51:51.481Z,1812.00
2019-04-28T11:52:51.588Z,1848.00
2019-04-28T11:53:51.692Z,1964.00
2019-04-28T11:54:51.809Z,2060.00
2019-04-28T11:55:51.905Z,2116.00
2019-04-28T11:56:51.997Z,2196.00
2019-04-28T11:57:52.092Z,2244.00
2019-04-28T11:58:52.176Z,2292.00
2019-04-28T11:59:54.093Z,2384.00
2019-04-28T12:00:52.363Z,2420.00
2019-04-28T12:01:52.462Z,2392.00
2019-04-28T12:02:52.560Z,2388.00
2019-04-28T12:03:52.647Z,2400.00
2019-04-28T12:04:52.739Z,2432.00
2019-04-28T12:05:52.834Z,2348.00
2019-04-28T12:06:52.925Z,2392.00
2019-04-28T12:07:53.016Z,2420.00
2019-04-28T12:08:53.116Z,2468.00
2019-04-28T12:10:03.803Z,2564.00
2019-04-28T12:10:53.304Z,2612.00
2019-04-28T12:11:53.387Z,2636.00
2019-04-28T12:12:53.494Z,2536.00
2019-04-28T12:13:53.581Z,2520.00
2019-04-28T12:14:53.670Z,2424.00
2019-04-28T12:15:53.761Z,2348.00
2019-04-28T12:16:53.843Z,2304.00
2019-04-28T12:17:53.951Z,2208.00
2019-04-28T12:18:54.043Z,2240.00
2019-04-28T12:19:54.140Z,2312.00
2019-04-28T12:20:54.226Z,2132.00
2019-04-28T12:21:54.329Z,2348.00
2019-04-28T12:22:54.431Z,2620.00
2019-04-28T12:23:54.524Z,3104.00
2019-04-28T12:24:54.650Z,2792.00
2019-04-28T12:25:54.710Z,2792.00
2019-04-28T12:26:54.813Z,3168.00
2019-04-28T12:27:54.919Z,4556.00
2019-04-28T12:28:54.985Z,4120.00
2019-04-28T12:29:55.075Z,3568.00
2019-04-28T12:30:55.165Z,6052.00